Time;durP1;ratioP1;P1;durP2;ratioP2;P2;SDS_P1;SDS_P2;PMS_P1;PMS_P2;Temp;Humidity;BMP_temperature;BMP_pressure;BME280_temperature;BME280_humidity;BME280_pressure;Samples;Min_cycle;Max_cycle;Signal;HPM_P1;HPM_P2
2023/07/27 00:00:33;;;;;;;0.00;0.00;;;;;;;;;;1744931;28;20326;-79
2023/07/27 00:01:24;;;;;;;0.00;0.00;;;;;;;;;;1749748;28;20241;-78
2023/07/27 00:02:17;;;;;;;0.00;0.00;;;;;;;;;;1748798;28;20324;-79
2023/07/27 00:03:08;;;;;;;0.00;0.00;;;;;;;;;;1750995;28;20198;-79
2023/07/27 00:03:59;;;;;;;0.00;0.00;;;;;;;;;;1749538;28;20230;-79
2023/07/27 00:04:51;;;;;;;0.00;0.00;;;;;;;;;;1751089;28;20185;-79
2023/07/27 00:05:42;;;;;;;0.00;0.00;;;;;;;;;;1750013;28;20321;-79
2023/07/27 00:06:35;;;;;;;0.00;0.00;;;;;;;;;;1748185;28;20202;-79
2023/07/27 00:07:26;;;;;;;0.00;0.00;;;;;;;;;;1750744;28;20538;-79
2023/07/27 00:08:18;;;;;;;0.00;0.00;;;;;;;;;;1749711;28;20252;-79
2023/07/27 00:09:09;;;;;;;0.00;0.00;;;;;;;;;;1753022;28;20206;-80
2023/07/27 00:10:00;;;;;;;0.00;0.00;;;;;;;;;;1748916;28;20488;-80
2023/07/27 00:10:52;;;;;;;0.00;0.00;;;;;;;;;;1750727;28;20221;-80
2023/07/27 00:11:43;;;;;;;0.00;0.00;;;;;;;;;;1749107;28;20293;-79
2023/07/27 00:12:35;;;;;;;0.00;0.00;;;;;;;;;;1754246;28;20230;-79
2023/07/27 00:13:27;;;;;;;0.00;0.00;;;;;;;;;;1749894;28;20198;-78
2023/07/27 00:14:18;;;;;;;0.00;0.00;;;;;;;;;;1752884;28;20293;-78
2023/07/27 00:15:09;;;;;;;0.00;0.00;;;;;;;;;;1746821;28;20186;-78
2023/07/27 00:16:01;;;;;;;0.00;0.00;;;;;;;;;;1749269;28;20667;-78
2023/07/27 00:16:52;;;;;;;0.00;0.00;;;;;;;;;;1750441;28;20228;-78
2023/07/27 00:17:43;;;;;;;0.00;0.00;;;;;;;;;;1752447;28;20197;-78
2023/07/27 00:18:35;;;;;;;0.00;0.00;;;;;;;;;;1750872;28;20860;-79
2023/07/27 00:19:26;;;;;;;0.00;0.00;;;;;;;;;;1752510;28;20639;-79
2023/07/27 00:20:18;;;;;;;0.00;0.00;;;;;;;;;;1748847;28;20322;-78
2023/07/27 00:21:10;;;;;;;0.00;0.00;;;;;;;;;;1753568;28;20240;-79
2023/07/27 00:22:02;;;;;;;0.00;0.00;;;;;;;;;;1751005;28;20795;-78
2023/07/27 00:22:53;;;;;;;0.00;0.00;;;;;;;;;;1751666;28;20264;-78
2023/07/27 00:23:45;;;;;;;0.00;0.00;;;;;;;;;;1753909;28;20226;-78
2023/07/27 00:24:36;;;;;;;0.00;0.00;;;;;;;;;;1752396;28;20316;-78
2023/07/27 00:25:28;;;;;;;0.00;0.00;;;;;;;;;;1752473;28;20197;-78
2023/07/27 00:26:19;;;;;;;0.00;0.00;;;;;;;;;;1753882;28;20656;-78
2023/07/27 00:27:11;;;;;;;0.00;0.00;;;;;;;;;;1753578;28;20691;-78
2023/07/27 00:28:02;;;;;;;0.00;0.00;;;;;;;;;;1747531;28;20644;-78
2023/07/27 00:28:54;;;;;;;0.00;0.00;;;;;;;;;;1753195;28;20258;-78
2023/07/27 00:29:45;;;;;;;0.00;0.00;;;;;;;;;;1751944;28;20289;-77
2023/07/27 00:30:36;;;;;;;0.00;0.00;;;;;;;;;;1748807;28;20286;-78
2023/07/27 00:31:28;;;;;;;0.00;0.00;;;;;;;;;;1751822;28;20209;-77
2023/07/27 00:32:20;;;;;;;0.00;0.00;;;;;;;;;;1750551;28;20296;-78
2023/07/27 00:33:12;;;;;;;0.00;0.00;;;;;;;;;;1752384;28;20207;-78
2023/07/27 00:34:03;;;;;;;0.00;0.00;;;;;;;;;;1751459;28;20205;-78
2023/07/27 00:34:54;;;;;;;0.00;0.00;;;;;;;;;;1751829;28;20201;-78
2023/07/27 00:35:54;;;;;;;0.00;0.00;;;;;;;;;;1748959;28;20227;-78
2023/07/27 00:36:45;;;;;;;0.00;0.00;;;;;;;;;;1751423;28;20710;-78
2023/07/27 00:37:38;;;;;;;0.00;0.00;;;;;;;;;;1751321;28;20194;-78
2023/07/27 00:38:29;;;;;;;0.00;0.00;;;;;;;;;;1750864;28;20288;-77
2023/07/27 00:39:21;;;;;;;0.00;0.00;;;;;;;;;;1752719;28;20224;-77
2023/07/27 00:40:13;;;;;;;0.00;0.00;;;;;;;;;;1752699;28;20890;-77
2023/07/27 00:41:04;;;;;;;0.00;0.00;;;;;;;;;;1738523;28;20415;-78
2023/07/27 00:41:56;;;;;;;0.00;0.00;;;;;;;;;;1742545;28;20202;-77
2023/07/27 00:42:47;;;;;;;0.00;0.00;;;;;;;;;;1745884;28;20657;-77
2023/07/27 00:43:39;;;;;;;0.00;0.00;;;;;;;;;;1743597;28;20226;-77
2023/07/27 00:44:30;;;;;;;0.00;0.00;;;;;;;;;;1745195;28;20217;-77
2023/07/27 00:45:21;;;;;;;0.00;0.00;;;;;;;;;;1743476;28;20202;-78
2023/07/27 00:46:14;;;;;;;0.00;0.00;;;;;;;;;;1741692;28;20535;-77
2023/07/27 00:47:06;;;;;;;0.00;0.00;;;;;;;;;;1745522;28;20194;-77
2023/07/27 00:47:57;;;;;;;0.00;0.00;;;;;;;;;;1745068;28;20241;-77
2023/07/27 00:48:49;;;;;;;0.00;0.00;;;;;;;;;;1745349;28;20388;-77
2023/07/27 00:49:40;;;;;;;0.00;0.00;;;;;;;;;;1745237;28;20325;-77
2023/07/27 00:50:32;;;;;;;0.00;0.00;;;;;;;;;;1743487;28;20802;-78
2023/07/27 00:51:23;;;;;;;0.00;0.00;;;;;;;;;;1745437;28;20738;-77
2023/07/27 00:52:15;;;;;;;0.00;0.00;;;;;;;;;;1745279;28;20217;-77
2023/07/27 00:53:09;;;;;;;0.00;0.00;;;;;;;;;;1745481;28;20623;-77
2023/07/27 00:54:00;;;;;;;0.00;0.00;;;;;;;;;;1745692;28;20297;-78
2023/07/27 00:54:55;;;;;;;0.00;0.00;;;;;;;;;;1744923;28;20624;-78
2023/07/27 00:55:47;;;;;;;0.00;0.00;;;;;;;;;;1743807;28;20218;-78
2023/07/27 00:56:39;;;;;;;0.00;0.00;;;;;;;;;;1744904;28;20309;-78
2023/07/27 00:57:30;;;;;;;0.00;0.00;;;;;;;;;;1745744;28;20275;-78
2023/07/27 00:58:23;;;;;;;0.00;0.00;;;;;;;;;;1745004;28;20221;-77
2023/07/27 00:59:14;;;;;;;0.00;0.00;;;;;;;;;;1745507;28;20266;-78
2023/07/27 01:00:06;;;;;;;0.00;0.00;;;;;;;;;;1745585;28;20646;-78
2023/07/27 01:01:01;;;;;;;0.00;0.00;;;;;;;;;;1749270;28;20306;-78
2023/07/27 01:01:52;;;;;;;0.00;0.00;;;;;;;;;;1745818;28;20289;-77
2023/07/27 01:02:44;;;;;;;0.00;0.00;;;;;;;;;;1751800;28;20229;-78
2023/07/27 01:03:35;;;;;;;0.00;0.00;;;;;;;;;;1749372;28;20202;-78
2023/07/27 01:04:27;;;;;;;0.00;0.00;;;;;;;;;;1752420;28;20209;-78
2023/07/27 01:05:18;;;;;;;0.00;0.00;;;;;;;;;;1743706;28;20301;-78
2023/07/27 01:06:10;;;;;;;0.00;0.00;;;;;;;;;;1745697;28;20518;-78
2023/07/27 01:07:02;;;;;;;0.00;0.00;;;;;;;;;;1744913;28;20298;-78
2023/07/27 01:07:53;;;;;;;0.00;0.00;;;;;;;;;;1745241;28;20222;-78
2023/07/27 01:08:46;;;;;;;0.00;0.00;;;;;;;;;;1745070;28;20209;-78
2023/07/27 01:09:37;;;;;;;0.00;0.00;;;;;;;;;;1745096;28;20217;-77
2023/07/27 01:10:34;;;;;;;0.00;0.00;;;;;;;;;;1745256;28;20209;-77
2023/07/27 01:11:30;;;;;;;0.00;0.00;;;;;;;;;;1748923;28;20566;-77
2023/07/27 01:12:25;;;;;;;0.00;0.00;;;;;;;;;;1751056;28;20206;-77
2023/07/27 01:13:22;;;;;;;0.00;0.00;;;;;;;;;;1748916;28;20398;-78
2023/07/27 01:14:19;;;;;;;0.00;0.00;;;;;;;;;;1747223;28;20230;-78
2023/07/27 01:15:14;;;;;;;0.00;0.00;;;;;;;;;;1749207;28;20194;-78
2023/07/27 01:16:08;;;;;;;0.00;0.00;;;;;;;;;;1750544;28;20298;-78
2023/07/27 01:17:02;;;;;;;0.00;0.00;;;;;;;;;;1752031;28;20206;-78
2023/07/27 01:17:58;;;;;;;0.00;0.00;;;;;;;;;;1751939;28;20220;-78
2023/07/27 01:18:53;;;;;;;0.00;0.00;;;;;;;;;;1749375;28;20681;-78
2023/07/27 01:19:56;;;;;;;0.00;0.00;;;;;;;;;;1750772;28;20703;-77
2023/07/27 01:20:52;;;;;;;0.00;0.00;;;;;;;;;;1742921;28;20240;-78
2023/07/27 01:21:44;;;;;;;0.00;0.00;;;;;;;;;;1746174;28;20714;-78
2023/07/27 01:22:46;;;;;;;0.00;0.00;;;;;;;;;;1746811;28;20478;-78
2023/07/27 01:23:59;;;;;;;0.00;0.00;;;;;;;;;;1746285;28;20287;-78
2023/07/27 01:25:03;;;;;;;0.00;0.00;;;;;;;;;;1746269;28;20290;-78
2023/07/27 01:25:59;;;;;;;0.00;0.00;;;;;;;;;;1744723;28;20241;-78
2023/07/27 01:27:08;;;;;;;0.00;0.00;;;;;;;;;;1746321;28;20219;-78
2023/07/27 01:28:06;;;;;;;0.00;0.00;;;;;;;;;;1745324;28;20396;-78
2023/07/27 01:29:04;;;;;;;0.00;0.00;;;;;;;;;;1746735;28;20226;-78
2023/07/27 01:30:03;;;;;;;0.00;0.00;;;;;;;;;;1746019;28;20260;-78
2023/07/27 01:30:57;;;;;;;0.00;0.00;;;;;;;;;;1744449;28;20303;-77
2023/07/27 01:31:52;;;;;;;0.00;0.00;;;;;;;;;;1746226;28;20214;-77
2023/07/27 01:32:43;;;;;;;0.00;0.00;;;;;;;;;;1746653;28;20203;-77
2023/07/27 01:33:38;;;;;;;0.00;0.00;;;;;;;;;;1746431;28;20206;-77
2023/07/27 01:34:32;;;;;;;0.00;0.00;;;;;;;;;;1746358;28;20206;-77
2023/07/27 01:35:24;;;;;;;0.00;0.00;;;;;;;;;;1744504;28;20213;-78
2023/07/27 01:36:19;;;;;;;0.00;0.00;;;;;;;;;;1746501;28;20198;-78
2023/07/27 01:37:10;;;;;;;0.00;0.00;;;;;;;;;;1745750;28;20727;-78
2023/07/27 01:38:02;;;;;;;0.00;0.00;;;;;;;;;;1746012;28;20260;-78
2023/07/27 01:38:58;;;;;;;0.00;0.00;;;;;;;;;;1746657;28;20292;-78
2023/07/27 01:39:51;;;;;;;0.00;0.00;;;;;;;;;;1746354;28;20286;-78
2023/07/27 01:40:43;;;;;;;0.00;0.00;;;;;;;;;;1745415;28;20605;-78
2023/07/27 01:41:36;;;;;;;0.00;0.00;;;;;;;;;;1746450;28;20446;-78
2023/07/27 01:42:27;;;;;;;0.00;0.00;;;;;;;;;;1746495;28;20210;-78
2023/07/27 01:43:19;;;;;;;0.00;0.00;;;;;;;;;;1746375;28;20258;-78
2023/07/27 01:44:12;;;;;;;0.00;0.00;;;;;;;;;;1746868;28;20345;-78
2023/07/27 01:45:04;;;;;;;0.00;0.00;;;;;;;;;;1746617;28;20342;-78
2023/07/27 01:45:59;;;;;;;0.00;0.00;;;;;;;;;;1747941;28;20849;-78
2023/07/27 01:46:51;;;;;;;0.00;0.00;;;;;;;;;;1749672;28;20210;-77
2023/07/27 01:47:43;;;;;;;0.00;0.00;;;;;;;;;;1754117;28;20215;-77
2023/07/27 01:48:38;;;;;;;0.00;0.00;;;;;;;;;;1753028;28;20247;-77
2023/07/27 01:49:29;;;;;;;0.00;0.00;;;;;;;;;;1753882;28;20651;-77
2023/07/27 01:50:21;;;;;;;0.00;0.00;;;;;;;;;;1744901;28;21468;-78
2023/07/27 01:51:13;;;;;;;0.00;0.00;;;;;;;;;;1746541;28;20881;-78
2023/07/27 01:52:05;;;;;;;0.00;0.00;;;;;;;;;;1746461;28;20264;-78
2023/07/27 01:52:58;;;;;;;0.00;0.00;;;;;;;;;;1747162;28;20209;-78
2023/07/27 01:53:50;;;;;;;0.00;0.00;;;;;;;;;;1746760;28;20261;-79
2023/07/27 01:54:41;;;;;;;0.00;0.00;;;;;;;;;;1746672;28;20206;-78
2023/07/27 01:55:34;;;;;;;0.00;0.00;;;;;;;;;;1745182;28;20559;-77
2023/07/27 01:56:26;;;;;;;0.00;0.00;;;;;;;;;;1746728;28;20669;-78
2023/07/27 01:57:19;;;;;;;0.00;0.00;;;;;;;;;;1745374;28;20233;-79
2023/07/27 01:58:10;;;;;;;0.10;0.10;;;;;;;;;;1744266;28;20297;-79
2023/07/27 01:59:02;;;;;;;0.00;0.00;;;;;;;;;;1746985;28;20814;-78
2023/07/27 01:59:54;;;;;;;0.00;0.00;;;;;;;;;;1746593;28;20203;-77
2023/07/27 02:00:46;;;;;;;0.00;0.00;;;;;;;;;;1744699;28;20329;-77
2023/07/27 02:01:42;;;;;;;0.00;0.00;;;;;;;;;;1746452;28;20245;-77
2023/07/27 02:02:34;;;;;;;0.00;0.00;;;;;;;;;;1742324;28;20249;-77
2023/07/27 02:03:26;;;;;;;0.00;0.00;;;;;;;;;;1746340;28;20349;-77
2023/07/27 02:04:17;;;;;;;0.00;0.00;;;;;;;;;;1747306;28;20202;-77
2023/07/27 02:05:10;;;;;;;0.00;0.00;;;;;;;;;;1746626;28;20652;-77
2023/07/27 02:06:01;;;;;;;0.00;0.00;;;;;;;;;;1750863;28;20275;-77
2023/07/27 02:06:53;;;;;;;0.00;0.00;;;;;;;;;;1751989;28;20326;-77
2023/07/27 02:07:44;;;;;;;0.00;0.00;;;;;;;;;;1753150;28;20198;-77
2023/07/27 02:08:35;;;;;;;0.00;0.00;;;;;;;;;;1751964;28;20543;-77
2023/07/27 02:09:27;;;;;;;0.00;0.00;;;;;;;;;;1747178;28;20267;-77
2023/07/27 02:10:19;;;;;;;0.00;0.00;;;;;;;;;;1748042;28;20720;-78
2023/07/27 02:11:11;;;;;;;0.00;0.00;;;;;;;;;;1746583;28;20210;-78
2023/07/27 02:12:07;;;;;;;0.00;0.00;;;;;;;;;;1752801;28;20413;-78
2023/07/27 02:13:01;;;;;;;0.00;0.00;;;;;;;;;;1751418;28;20288;-77
2023/07/27 02:13:55;;;;;;;0.00;0.00;;;;;;;;;;1753497;28;20612;-77
2023/07/27 02:14:48;;;;;;;0.00;0.00;;;;;;;;;;1751588;28;20522;-77
2023/07/27 02:15:43;;;;;;;0.00;0.00;;;;;;;;;;1751981;28;20264;-77
2023/07/27 02:16:37;;;;;;;0.00;0.00;;;;;;;;;;1751551;28;20304;-78
2023/07/27 02:17:35;;;;;;;0.00;0.00;;;;;;;;;;1753359;28;20683;-78
2023/07/27 02:18:27;;;;;;;0.00;0.00;;;;;;;;;;1751239;28;20194;-77
2023/07/27 02:19:23;;;;;;;0.00;0.00;;;;;;;;;;1753841;28;20205;-78
2023/07/27 02:20:16;;;;;;;0.00;0.00;;;;;;;;;;1751733;28;20248;-79
2023/07/27 02:21:09;;;;;;;0.00;0.00;;;;;;;;;;1752064;28;20655;-79
2023/07/27 02:22:02;;;;;;;0.00;0.00;;;;;;;;;;1752509;28;20252;-79
2023/07/27 02:22:55;;;;;;;0.00;0.00;;;;;;;;;;1752082;28;20220;-79
2023/07/27 02:23:47;;;;;;;0.00;0.00;;;;;;;;;;1753626;28;20300;-79
2023/07/27 02:24:39;;;;;;;0.00;0.00;;;;;;;;;;1751818;28;20198;-78
2023/07/27 02:25:30;;;;;;;0.00;0.00;;;;;;;;;;1748535;28;20256;-78
2023/07/27 02:26:23;;;;;;;0.00;0.00;;;;;;;;;;1752955;28;20661;-78
2023/07/27 02:27:14;;;;;;;0.00;0.00;;;;;;;;;;1755560;28;20247;-78
2023/07/27 02:28:06;;;;;;;0.00;0.00;;;;;;;;;;1752565;28;20198;-78
2023/07/27 02:28:57;;;;;;;0.00;0.00;;;;;;;;;;1755342;28;20289;-78
2023/07/27 02:29:49;;;;;;;0.00;0.00;;;;;;;;;;1753731;28;20289;-78
2023/07/27 02:30:40;;;;;;;0.00;0.00;;;;;;;;;;1748230;28;20292;-79
2023/07/27 02:31:32;;;;;;;0.00;0.00;;;;;;;;;;1751334;28;20209;-79
2023/07/27 02:32:23;;;;;;;0.00;0.00;;;;;;;;;;1753229;28;20206;-79
2023/07/27 02:33:15;;;;;;;0.00;0.00;;;;;;;;;;1751305;28;20209;-79
2023/07/27 02:34:07;;;;;;;0.00;0.00;;;;;;;;;;1753927;28;20205;-79
2023/07/27 02:34:59;;;;;;;0.00;0.00;;;;;;;;;;1751024;28;20251;-79
2023/07/27 02:35:50;;;;;;;0.00;0.00;;;;;;;;;;1752075;28;20263;-79
2023/07/27 02:36:42;;;;;;;0.00;0.00;;;;;;;;;;1751648;28;20216;-79
2023/07/27 02:37:34;;;;;;;0.00;0.00;;;;;;;;;;1748445;28;20351;-79
2023/07/27 02:38:25;;;;;;;0.00;0.00;;;;;;;;;;1751550;28;20229;-78
2023/07/27 02:39:17;;;;;;;0.00;0.00;;;;;;;;;;1754196;28;20320;-79
2023/07/27 02:40:08;;;;;;;0.00;0.00;;;;;;;;;;1751963;28;21024;-79
2023/07/27 02:40:59;;;;;;;0.00;0.00;;;;;;;;;;1752770;28;20320;-78
2023/07/27 02:41:51;;;;;;;0.00;0.00;;;;;;;;;;1753766;28;20659;-79
2023/07/27 02:42:42;;;;;;;0.00;0.00;;;;;;;;;;1757093;28;20265;-79
2023/07/27 02:43:33;;;;;;;0.00;0.00;;;;;;;;;;1753827;28;20257;-79
2023/07/27 02:44:25;;;;;;;0.00;0.00;;;;;;;;;;1756376;28;20240;-79
2023/07/27 02:45:16;;;;;;;0.00;0.00;;;;;;;;;;1753527;28;20269;-79
2023/07/27 02:46:08;;;;;;;0.00;0.00;;;;;;;;;;1751046;28;20472;-79
2023/07/27 02:47:00;;;;;;;0.00;0.00;;;;;;;;;;1754536;28;20209;-79
2023/07/27 02:47:51;;;;;;;0.00;0.00;;;;;;;;;;1755259;28;20324;-78
2023/07/27 02:48:43;;;;;;;0.00;0.00;;;;;;;;;;1754255;28;20201;-78
2023/07/27 02:49:35;;;;;;;0.00;0.00;;;;;;;;;;1754845;28;20243;-78
2023/07/27 02:50:26;;;;;;;0.00;0.00;;;;;;;;;;1752952;28;20233;-79
2023/07/27 02:51:17;;;;;;;0.00;0.00;;;;;;;;;;1751271;28;20450;-78
2023/07/27 02:52:09;;;;;;;0.00;0.00;;;;;;;;;;1753293;28;20297;-78
2023/07/27 02:53:00;;;;;;;0.00;0.00;;;;;;;;;;1750845;28;20288;-78
2023/07/27 02:53:52;;;;;;;0.00;0.00;;;;;;;;;;1750625;28;20205;-78
2023/07/27 02:54:43;;;;;;;0.00;0.00;;;;;;;;;;1751894;28;20360;-78
2023/07/27 02:55:35;;;;;;;0.00;0.00;;;;;;;;;;1751481;28;20267;-78
2023/07/27 02:56:27;;;;;;;0.00;0.00;;;;;;;;;;1751151;28;20277;-77
2023/07/27 02:57:18;;;;;;;0.00;0.00;;;;;;;;;;1753293;28;20288;-77
2023/07/27 02:58:09;;;;;;;0.00;0.00;;;;;;;;;;1751207;28;20206;-77
2023/07/27 02:59:01;;;;;;;0.00;0.00;;;;;;;;;;1753315;28;20194;-77
2023/07/27 02:59:52;;;;;;;0.00;0.00;;;;;;;;;;1751054;28;20236;-77
2023/07/27 03:00:43;;;;;;;0.00;0.00;;;;;;;;;;1747314;28;20624;-77
2023/07/27 03:01:35;;;;;;;0.00;0.00;;;;;;;;;;1750669;28;20665;-77
2023/07/27 03:02:26;;;;;;;0.00;0.00;;;;;;;;;;1747396;28;20580;-77
2023/07/27 03:03:18;;;;;;;0.00;0.00;;;;;;;;;;1749331;28;20293;-77
2023/07/27 03:04:10;;;;;;;0.00;0.00;;;;;;;;;;1753790;28;20288;-79
2023/07/27 03:05:04;;;;;;;0.00;0.00;;;;;;;;;;1751590;28;20287;-78
2023/07/27 03:05:58;;;;;;;0.00;0.00;;;;;;;;;;1749125;28;20671;-79
2023/07/27 03:06:50;;;;;;;0.00;0.00;;;;;;;;;;1751955;28;20236;-79
2023/07/27 03:07:41;;;;;;;0.00;0.00;;;;;;;;;;1754342;28;20592;-79
2023/07/27 03:08:33;;;;;;;0.00;0.00;;;;;;;;;;1752082;28;20190;-79
2023/07/27 03:09:25;;;;;;;0.00;0.00;;;;;;;;;;1754529;28;20655;-79
2023/07/27 03:10:16;;;;;;;0.00;0.00;;;;;;;;;;1753299;28;20282;-79
2023/07/27 03:11:07;;;;;;;0.00;0.00;;;;;;;;;;1752512;28;20236;-80
2023/07/27 03:11:59;;;;;;;0.00;0.00;;;;;;;;;;1752691;28;20198;-80
2023/07/27 03:12:50;;;;;;;0.00;0.00;;;;;;;;;;1753187;28;20766;-80
2023/07/27 03:13:42;;;;;;;0.00;0.00;;;;;;;;;;1753396;28;20623;-79
2023/07/27 03:14:33;;;;;;;0.00;0.00;;;;;;;;;;1753920;28;20233;-79
2023/07/27 03:15:24;;;;;;;0.00;0.00;;;;;;;;;;1752339;28;20387;-80
2023/07/27 03:16:16;;;;;;;0.00;0.00;;;;;;;;;;1752697;28;20293;-80
2023/07/27 03:17:08;;;;;;;0.00;0.00;;;;;;;;;;1754315;28;20361;-80
2023/07/27 03:17:59;;;;;;;0.00;0.00;;;;;;;;;;1752004;28;20227;-80
2023/07/27 03:18:51;;;;;;;0.00;0.00;;;;;;;;;;1754294;28;20201;-79
2023/07/27 03:19:43;;;;;;;0.00;0.00;;;;;;;;;;1752219;28;20230;-80
2023/07/27 03:20:38;;;;;;;0.00;0.00;;;;;;;;;;1751092;28;20272;-80
2023/07/27 03:21:30;;;;;;;0.00;0.00;;;;;;;;;;1752232;28;20195;-80
2023/07/27 03:22:21;;;;;;;0.00;0.00;;;;;;;;;;1754460;28;20643;-80
2023/07/27 03:23:12;;;;;;;0.00;0.00;;;;;;;;;;1752318;28;20210;-80
2023/07/27 03:24:05;;;;;;;0.00;0.00;;;;;;;;;;1753994;28;20228;-80
2023/07/27 03:24:56;;;;;;;0.00;0.00;;;;;;;;;;1752003;28;20443;-79
2023/07/27 03:25:47;;;;;;;0.00;0.00;;;;;;;;;;1750912;28;20285;-80
2023/07/27 03:26:39;;;;;;;0.00;0.00;;;;;;;;;;1754161;28;20631;-79
2023/07/27 03:27:30;;;;;;;0.00;0.00;;;;;;;;;;1750579;28;20325;-79
2023/07/27 03:28:21;;;;;;;0.00;0.00;;;;;;;;;;1754138;28;20286;-80
2023/07/27 03:29:13;;;;;;;0.00;0.00;;;;;;;;;;1756432;28;20197;-80
2023/07/27 03:30:05;;;;;;;0.00;0.00;;;;;;;;;;1754241;28;20230;-80
2023/07/27 03:30:56;;;;;;;0.00;0.00;;;;;;;;;;1751651;28;20619;-80
2023/07/27 03:31:48;;;;;;;0.00;0.00;;;;;;;;;;1751069;28;21416;-80
2023/07/27 03:32:39;;;;;;;0.00;0.00;;;;;;;;;;1753906;28;20246;-80
2023/07/27 03:33:30;;;;;;;0.00;0.00;;;;;;;;;;1749229;28;20277;-80
2023/07/27 03:34:22;;;;;;;0.00;0.00;;;;;;;;;;1750002;28;20213;-80
2023/07/27 03:35:14;;;;;;;0.00;0.00;;;;;;;;;;1751956;28;20240;-80
2023/07/27 03:36:05;;;;;;;0.00;0.00;;;;;;;;;;1753861;28;20295;-80
2023/07/27 03:36:57;;;;;;;0.00;0.00;;;;;;;;;;1753776;28;20281;-80
2023/07/27 03:37:50;;;;;;;0.00;0.00;;;;;;;;;;1754479;28;20228;-78
2023/07/27 03:38:41;;;;;;;0.00;0.00;;;;;;;;;;1753047;28;20223;-78
2023/07/27 03:39:33;;;;;;;0.00;0.00;;;;;;;;;;1753024;28;20216;-78
2023/07/27 03:40:24;;;;;;;0.00;0.00;;;;;;;;;;1745322;28;20252;-78
2023/07/27 03:41:15;;;;;;;0.00;0.00;;;;;;;;;;1751604;28;20519;-78
2023/07/27 03:42:07;;;;;;;0.10;0.10;;;;;;;;;;1752647;28;20205;-78
2023/07/27 03:42:59;;;;;;;0.00;0.00;;;;;;;;;;1750331;28;20300;-78
2023/07/27 03:43:51;;;;;;;0.00;0.00;;;;;;;;;;1752617;28;20218;-78
2023/07/27 03:44:43;;;;;;;0.00;0.00;;;;;;;;;;1751818;28;20232;-78
2023/07/27 03:45:35;;;;;;;0.00;0.00;;;;;;;;;;1745412;28;20230;-78
2023/07/27 03:46:26;;;;;;;0.00;0.00;;;;;;;;;;1747142;28;20306;-77
2023/07/27 03:47:17;;;;;;;0.00;0.00;;;;;;;;;;1753163;28;20597;-78
2023/07/27 03:48:09;;;;;;;0.00;0.00;;;;;;;;;;1750802;28;20267;-78
2023/07/27 03:49:00;;;;;;;0.00;0.00;;;;;;;;;;1752495;28;20806;-78
2023/07/27 03:49:52;;;;;;;0.00;0.00;;;;;;;;;;1753113;28;20197;-78
2023/07/27 03:50:45;;;;;;;0.00;0.00;;;;;;;;;;1750160;28;20245;-78
2023/07/27 03:51:36;;;;;;;0.00;0.00;;;;;;;;;;1752433;28;20324;-79
2023/07/27 03:52:27;;;;;;;0.00;0.00;;;;;;;;;;1754713;28;20247;-78
2023/07/27 03:53:19;;;;;;;0.00;0.00;;;;;;;;;;1750984;28;20219;-79
2023/07/27 03:54:10;;;;;;;0.00;0.00;;;;;;;;;;1754396;28;20225;-79
2023/07/27 03:55:03;;;;;;;0.00;0.00;;;;;;;;;;1752054;28;20198;-78
2023/07/27 03:55:54;;;;;;;0.00;0.00;;;;;;;;;;1750769;28;20708;-78
2023/07/27 03:56:46;;;;;;;0.00;0.00;;;;;;;;;;1750571;28;20642;-77
2023/07/27 03:57:37;;;;;;;0.00;0.00;;;;;;;;;;1752969;28;20209;-78
2023/07/27 03:58:29;;;;;;;0.00;0.00;;;;;;;;;;1748299;28;20206;-79
2023/07/27 03:59:21;;;;;;;0.00;0.00;;;;;;;;;;1753901;28;20232;-79
2023/07/27 04:00:12;;;;;;;0.00;0.00;;;;;;;;;;1747347;28;20325;-78
2023/07/27 04:01:03;;;;;;;0.00;0.00;;;;;;;;;;1750185;28;20229;-78
2023/07/27 04:01:55;;;;;;;0.00;0.00;;;;;;;;;;1752232;28;20646;-78
2023/07/27 04:02:46;;;;;;;0.00;0.00;;;;;;;;;;1752724;28;20289;-78
2023/07/27 04:03:37;;;;;;;0.00;0.00;;;;;;;;;;1749777;28;20244;-78
2023/07/27 04:04:29;;;;;;;0.00;0.00;;;;;;;;;;1751961;28;20205;-78
2023/07/27 04:05:20;;;;;;;0.00;0.00;;;;;;;;;;1750769;28;20233;-78
2023/07/27 04:06:14;;;;;;;0.00;0.00;;;;;;;;;;1751842;28;20197;-77
2023/07/27 04:07:05;;;;;;;0.00;0.00;;;;;;;;;;1750967;28;20256;-79
2023/07/27 04:07:56;;;;;;;0.00;0.00;;;;;;;;;;1751889;28;20212;-79
2023/07/27 04:08:49;;;;;;;0.00;0.00;;;;;;;;;;1752798;28;20627;-79
2023/07/27 04:09:40;;;;;;;0.00;0.00;;;;;;;;;;1751670;28;20293;-78
2023/07/27 04:10:31;;;;;;;0.00;0.00;;;;;;;;;;1750480;28;20599;-79
2023/07/27 04:11:24;;;;;;;0.00;0.00;;;;;;;;;;1751222;28;20193;-78
2023/07/27 04:12:15;;;;;;;0.00;0.00;;;;;;;;;;1753915;28;20213;-79
2023/07/27 04:13:07;;;;;;;0.00;0.00;;;;;;;;;;1750937;28;20194;-78
2023/07/27 04:13:58;;;;;;;0.00;0.00;;;;;;;;;;1751456;28;20213;-79
2023/07/27 04:14:49;;;;;;;0.00;0.00;;;;;;;;;;1750564;28;20240;-78
2023/07/27 04:15:42;;;;;;;0.00;0.00;;;;;;;;;;1746751;28;20264;-78
2023/07/27 04:16:33;;;;;;;0.00;0.00;;;;;;;;;;1750941;28;20313;-78
2023/07/27 04:17:24;;;;;;;0.00;0.00;;;;;;;;;;1753626;28;20213;-78
2023/07/27 04:18:16;;;;;;;0.00;0.00;;;;;;;;;;1750513;28;20752;-78
2023/07/27 04:19:07;;;;;;;0.00;0.00;;;;;;;;;;1754347;28;20411;-79
2023/07/27 04:19:58;;;;;;;0.00;0.00;;;;;;;;;;1751842;28;20256;-79
2023/07/27 04:20:50;;;;;;;0.00;0.00;;;;;;;;;;1752550;28;20245;-79
2023/07/27 04:21:43;;;;;;;0.00;0.00;;;;;;;;;;1753211;28;20649;-79
2023/07/27 04:22:34;;;;;;;0.00;0.00;;;;;;;;;;1756135;28;20315;-79
2023/07/27 04:23:26;;;;;;;0.00;0.00;;;;;;;;;;1753818;28;20292;-79
2023/07/27 04:24:17;;;;;;;0.00;0.00;;;;;;;;;;1756121;28;20292;-79
2023/07/27 04:25:09;;;;;;;0.00;0.00;;;;;;;;;;1752785;28;20212;-79
2023/07/27 04:26:02;;;;;;;0.00;0.00;;;;;;;;;;1751725;28;20221;-80
2023/07/27 04:26:53;;;;;;;0.00;0.00;;;;;;;;;;1751250;28;20756;-79
2023/07/27 04:27:45;;;;;;;0.00;0.00;;;;;;;;;;1752068;28;20216;-78
2023/07/27 04:28:36;;;;;;;0.00;0.00;;;;;;;;;;1748988;28;20210;-78
2023/07/27 04:29:28;;;;;;;0.00;0.00;;;;;;;;;;1753483;28;20243;-79
2023/07/27 04:30:20;;;;;;;0.00;0.00;;;;;;;;;;1746986;28;20239;-79
2023/07/27 04:31:11;;;;;;;0.00;0.00;;;;;;;;;;1750204;28;20208;-79
2023/07/27 04:32:03;;;;;;;0.00;0.00;;;;;;;;;;1750153;28;20213;-79
2023/07/27 04:32:54;;;;;;;0.00;0.00;;;;;;;;;;1751443;28;20236;-79
2023/07/27 04:33:46;;;;;;;0.00;0.00;;;;;;;;;;1749412;28;20256;-79
2023/07/27 04:34:37;;;;;;;0.00;0.00;;;;;;;;;;1751249;28;20288;-79
2023/07/27 04:35:28;;;;;;;0.00;0.00;;;;;;;;;;1746088;28;20234;-79
2023/07/27 04:36:20;;;;;;;0.00;0.00;;;;;;;;;;1750940;28;20209;-79
2023/07/27 04:37:12;;;;;;;0.00;0.00;;;;;;;;;;1752451;28;20209;-78
2023/07/27 04:38:04;;;;;;;0.00;0.00;;;;;;;;;;1749387;28;20717;-78
2023/07/27 04:38:55;;;;;;;0.00;0.00;;;;;;;;;;1750428;28;20706;-78
2023/07/27 04:39:46;;;;;;;0.00;0.00;;;;;;;;;;1749980;28;20342;-78
2023/07/27 04:40:39;;;;;;;0.00;0.00;;;;;;;;;;1745025;28;20343;-78
2023/07/27 04:41:30;;;;;;;0.00;0.00;;;;;;;;;;1751066;28;20213;-78
2023/07/27 04:42:22;;;;;;;0.00;0.00;;;;;;;;;;1752319;28;20414;-78
2023/07/27 04:43:13;;;;;;;0.00;0.00;;;;;;;;;;1750450;28;20297;-78
2023/07/27 04:44:04;;;;;;;0.00;0.00;;;;;;;;;;1752550;28;20224;-78
2023/07/27 04:44:56;;;;;;;0.00;0.00;;;;;;;;;;1750786;28;20256;-78
2023/07/27 04:45:47;;;;;;;0.00;0.00;;;;;;;;;;1750930;28;20520;-78
2023/07/27 04:46:38;;;;;;;0.00;0.00;;;;;;;;;;1748453;28;20212;-78
2023/07/27 04:47:30;;;;;;;0.00;0.00;;;;;;;;;;1752743;28;20351;-78
2023/07/27 04:48:21;;;;;;;0.00;0.00;;;;;;;;;;1750472;28;20296;-78
2023/07/27 04:49:13;;;;;;;0.00;0.00;;;;;;;;;;1752621;28;20220;-78
2023/07/27 04:50:05;;;;;;;0.00;0.00;;;;;;;;;;1748581;28;20554;-78
2023/07/27 04:50:56;;;;;;;0.00;0.00;;;;;;;;;;1741063;28;20321;-78
2023/07/27 04:51:48;;;;;;;0.00;0.00;;;;;;;;;;1745518;28;20209;-78
2023/07/27 04:52:41;;;;;;;0.00;0.00;;;;;;;;;;1746164;28;20355;-78
2023/07/27 04:53:33;;;;;;;0.00;0.00;;;;;;;;;;1744000;28;20313;-78
2023/07/27 04:54:24;;;;;;;0.00;0.00;;;;;;;;;;1739087;28;20364;-78
2023/07/27 04:55:15;;;;;;;0.00;0.00;;;;;;;;;;1743639;28;20293;-78
2023/07/27 04:56:07;;;;;;;0.00;0.00;;;;;;;;;;1748109;28;20201;-79
2023/07/27 04:56:58;;;;;;;0.00;0.00;;;;;;;;;;1747969;28;20237;-79
2023/07/27 04:57:50;;;;;;;0.00;0.00;;;;;;;;;;1748355;28;20672;-79
2023/07/27 04:58:41;;;;;;;0.00;0.00;;;;;;;;;;1748119;28;20226;-79
2023/07/27 04:59:32;;;;;;;0.00;0.00;;;;;;;;;;1748670;28;20248;-79
2023/07/27 05:00:24;;;;;;;0.00;0.00;;;;;;;;;;1744326;28;20232;-79
2023/07/27 05:01:15;;;;;;;0.00;0.00;;;;;;;;;;1747605;28;20234;-79
2023/07/27 05:02:06;;;;;;;0.00;0.00;;;;;;;;;;1748785;28;20222;-79
2023/07/27 05:02:58;;;;;;;0.05;0.05;;;;;;;;;;1748137;28;20198;-79
2023/07/27 05:03:51;;;;;;;0.00;0.00;;;;;;;;;;1748432;28;20347;-78
2023/07/27 05:04:43;;;;;;;0.00;0.00;;;;;;;;;;1747684;28;20239;-78
2023/07/27 05:05:34;;;;;;;0.00;0.00;;;;;;;;;;1746871;28;20324;-78
2023/07/27 05:06:26;;;;;;;0.00;0.00;;;;;;;;;;1748804;28;20209;-79
2023/07/27 05:07:17;;;;;;;0.00;0.00;;;;;;;;;;1748341;28;20297;-79
2023/07/27 05:08:09;;;;;;;0.00;0.00;;;;;;;;;;1748188;28;20225;-79
2023/07/27 05:09:01;;;;;;;0.00;0.00;;;;;;;;;;1748548;28;20233;-79
2023/07/27 05:09:52;;;;;;;0.00;0.00;;;;;;;;;;1748164;28;20194;-78
2023/07/27 05:10:43;;;;;;;0.00;0.00;;;;;;;;;;1746880;28;20712;-79
2023/07/27 05:11:35;;;;;;;0.00;0.00;;;;;;;;;;1748073;28;20699;-79
2023/07/27 05:12:27;;;;;;;0.00;0.00;;;;;;;;;;1748723;28;20461;-78
2023/07/27 05:13:18;;;;;;;0.00;0.00;;;;;;;;;;1747748;28;20259;-79